Marion, IN

7:01 PM EDT on October 01, 2016 (GMT -0400)
Marion Municipal

Weather History for KMZZ - October, 2012

Change the Weather History Date:

Wednesday, October 31, 2012

  Actual Average (KMIE) Record (KMIE)
Temperature  
Mean Temperature 37 °F 49 °F  
Max Temperature 39 °F 59 °F 78 °F (1971)
Min Temperature 35 °F 39 °F 18 °F (1988)
Degree Days  
Heating Degree Days 28 16  
Month to date heating degree days 364  
Since 1 July heating degree days 464  
Cooling Degree Days 0 0  
Month to date cooling degree days 16  
Year to date cooling degree days 955  
Moisture  
Dew Point 34 °F    
Average Humidity 84    
Maximum Humidity 93    
Minimum Humidity 75    
Precipitation  
Precipitation 0.03 in 0.10 in 1.18 in (2013)
Month to date precipitation 2.92  
Year to date precipitation 33.79  
Sea Level Pressure  
Sea Level Pressure 29.73 in    
Wind  
Wind Speed 15 mph (WNW)    
Max Wind Speed 21 mph    
Max Gust Speed 30 mph    
Visibility 8 miles    
Events Rain , Snow    
T = Trace of Precipitation, MM = Missing Value Source: NWS Daily Summary

Daily Weather History Graph

Daily Weather History Graph

Search for Another Location

Airport or City:

Trip Planner

Search our weather history database for the weather conditions in past years. The results will help you decide how hot, cold, wet, or windy it might be!

Date:

Astronomy

Oct. 31, 2012 Rise Set
Actual Time 8:12 AM EDT 6:39 PM EDT
Civil Twilight 7:43 AM EDT 7:08 PM EDT
Nautical Twilight 7:11 AM EDT 7:40 PM EDT
Astronomical Twilight 6:39 AM EDT 8:12 PM EDT
Moon 7:50 PM EDT (10/31) 9:52 AM EDT (10/31)
Length of Visible Light 11h 24m
Length of Day
10h 27m
Full, 97% of the Moon is Illuminated
Oct 31
Full
Nov 6
Last Quarter
Nov 13
New
Nov 20
First Quarter
Nov 28
Full

Hourly Weather History & Observations

Time (EDT) Temp. Windchill Dew Point Humidity Pressure Visibility Wind Dir Wind Speed Gust Speed Precip Events Conditions
12:15 AM 38.8 °F 30.0 °F 34.5 °F 84% 29.67 in 10.0 mi NW 16.1 mph 21.9 mph N/A   Overcast
12:35 AM 39.0 °F 32.3 °F 34.2 °F 83% 29.67 in 10.0 mi NW 10.4 mph 24.2 mph N/A   Overcast
12:55 AM 39.0 °F 31.4 °F 34.2 °F 83% 29.67 in 10.0 mi NW 12.7 mph - N/A   Overcast
1:15 AM 39.0 °F 31.0 °F 34.2 °F 83% 29.67 in 10.0 mi NW 13.8 mph 19.6 mph N/A   Overcast
1:35 AM 38.7 °F 30.9 °F 34.5 °F 85% 29.66 in 10.0 mi NW 12.7 mph 17.3 mph N/A   Overcast
1:55 AM 38.7 °F 30.1 °F 34.5 °F 85% 29.66 in 7.0 mi NW 15.0 mph 19.6 mph N/A Rain Light Rain
2:15 AM 38.7 °F 30.1 °F 34.5 °F 85% 29.66 in 10.0 mi NW 15.0 mph 19.6 mph N/A Rain Light Rain
2:35 AM 38.7 °F 30.5 °F 34.7 °F 86% 29.66 in 7.0 mi NW 13.8 mph 19.6 mph N/A Rain Light Rain
2:55 AM 38.7 °F 31.4 °F 34.7 °F 86% 29.67 in 7.0 mi NW 11.5 mph 19.6 mph N/A Rain Light Rain
3:15 AM 38.7 °F 30.5 °F 34.7 °F 86% 29.67 in 10.0 mi NW 13.8 mph - N/A Rain Light Rain
3:35 AM 38.5 °F 30.3 °F 34.5 °F 86% 29.67 in 10.0 mi NW 13.8 mph - N/A   Overcast
3:55 AM 38.5 °F 30.3 °F 34.7 °F 86% 29.66 in 10.0 mi NW 13.8 mph 20.7 mph N/A   Overcast
4:15 AM 38.5 °F 29.9 °F 34.9 °F 87% 29.66 in 10.0 mi NW 15.0 mph 21.9 mph N/A   Overcast
4:35 AM 38.5 °F 29.9 °F 34.7 °F 86% 29.66 in 10.0 mi NW 15.0 mph 21.9 mph N/A   Overcast
4:55 AM 38.5 °F 29.2 °F 34.7 °F 86% 29.66 in 5.0 mi NW 17.3 mph 23.0 mph N/A   Unknown
5:15 AM 38.7 °F 29.1 °F 34.7 °F 86% 29.67 in 7.0 mi NW 18.4 mph 24.2 mph N/A   Unknown
5:35 AM 38.7 °F 29.5 °F 34.5 °F 85% 29.67 in 10.0 mi NW 17.3 mph 23.0 mph N/A   Overcast
5:55 AM 38.8 °F 29.7 °F 34.7 °F 85% 29.68 in 10.0 mi NW 17.3 mph 20.7 mph N/A Rain Light Rain
6:15 AM 38.7 °F 29.5 °F 34.9 °F 86% 29.69 in 10.0 mi NW 17.3 mph 24.2 mph N/A   Overcast
6:35 AM 38.8 °F 30.4 °F 35.1 °F 86% 29.69 in 10.0 mi NW 15.0 mph 24.2 mph N/A   Overcast
6:55 AM 38.7 °F 30.5 °F 35.6 °F 89% 29.69 in 4.0 mi WNW 13.8 mph 18.4 mph N/A Rain Light Rain
7:15 AM 38.1 °F 30.7 °F 36.0 °F 92% 29.70 in 4.0 mi NW 11.5 mph 18.4 mph N/A Rain Light Rain
7:35 AM 37.9 °F 29.6 °F 36.0 °F 93% 29.70 in 4.0 mi NW 13.8 mph 17.3 mph 0.01 in   Overcast
7:55 AM 37.8 °F 29.4 °F 35.8 °F 93% 29.70 in 5.0 mi NW 13.8 mph 20.7 mph 0.01 in Rain Light Rain
8:15 AM 37.8 °F 29.8 °F 35.6 °F 92% 29.70 in 4.0 mi NW 12.7 mph 16.1 mph N/A   Overcast
8:35 AM 37.6 °F 28.8 °F 35.6 °F 93% 29.70 in 2.5 mi NW 15.0 mph 18.4 mph 0.01 in Rain Light Rain
8:55 AM 37.6 °F 28.4 °F 35.6 °F 93% 29.71 in 3.0 mi WNW 16.1 mph - 0.01 in Rain Light Rain
9:15 AM 36.9 °F 27.1 °F 34.7 °F 92% 29.71 in 3.0 mi WNW 17.3 mph 23.0 mph 0.01 in Rain Light Rain
9:35 AM 36.5 °F 27.0 °F 34.2 °F 91% 29.72 in 3.0 mi WNW 16.1 mph 21.9 mph 0.01 in   Overcast
10:15 AM 36.0 °F 26.0 °F 33.8 °F 92% 29.73 in 5.0 mi WNW 17.3 mph 23.0 mph N/A   Overcast
10:35 AM 35.6 °F 24.8 °F 33.4 °F 92% 29.72 in 4.0 mi WNW 19.6 mph - N/A   Overcast
10:55 AM 35.6 °F 25.9 °F 33.3 °F 91% 29.73 in 3.0 mi WNW 16.1 mph 24.2 mph N/A   Overcast
11:15 AM 35.6 °F 25.5 °F 33.1 °F 91% 29.73 in 7.0 mi WNW 17.3 mph 21.9 mph N/A   Overcast
11:35 AM 35.8 °F 26.5 °F 32.9 °F 89% 29.73 in 7.0 mi WNW 15.0 mph 21.9 mph N/A   Overcast
11:55 AM 36.1 °F 26.5 °F 33.1 °F 89% 29.74 in 10.0 mi WNW 16.1 mph 24.2 mph N/A   Overcast
12:15 PM 36.5 °F 25.7 °F 33.1 °F 87% 29.74 in 10.0 mi WNW 20.7 mph 27.6 mph N/A   Overcast
12:35 PM 36.7 °F 26.3 °F 32.9 °F 86% 29.74 in 10.0 mi WNW 19.6 mph 26.5 mph N/A   Overcast
12:55 PM 37.4 °F 27.5 °F 33.3 °F 85% 29.74 in 10.0 mi WNW 18.4 mph 29.9 mph N/A   Overcast
1:15 PM 38.1 °F 28.4 °F 33.8 °F 84% 29.74 in 7.0 mi WNW 18.4 mph 24.2 mph N/A Snow Light Snow
1:35 PM 38.3 °F 29.7 °F 34.0 °F 84% 29.74 in 7.0 mi WNW 15.0 mph 24.2 mph N/A   Overcast
1:55 PM 38.5 °F 28.6 °F 34.0 °F 84% 29.74 in 7.0 mi NW 19.6 mph 25.3 mph N/A   Overcast
2:15 PM 38.5 °F 29.2 °F 34.2 °F 84% 29.74 in 5.0 mi WNW 17.3 mph 23.0 mph N/A   Overcast
2:35 PM 38.5 °F 28.9 °F 34.3 °F 85% 29.75 in 5.0 mi WNW 18.4 mph 27.6 mph N/A Rain Light Rain
2:55 PM 38.7 °F 29.8 °F 34.5 °F 85% 29.75 in 7.0 mi WNW 16.1 mph 24.2 mph N/A   Overcast
3:15 PM 38.5 °F 28.9 °F 34.7 °F 86% 29.74 in 5.0 mi WNW 18.4 mph 25.3 mph N/A Rain Light Rain
3:35 PM 38.7 °F 29.8 °F 34.9 °F 86% 29.74 in 7.0 mi WNW 16.1 mph 24.2 mph N/A   Overcast
3:55 PM 39.0 °F 29.6 °F 34.5 °F 84% 29.75 in 7.0 mi WNW 18.4 mph 26.5 mph N/A   Overcast
4:15 PM 39.2 °F 29.8 °F 34.0 °F 82% 29.75 in 7.0 mi WNW 18.4 mph 24.2 mph N/A   Overcast
4:35 PM 39.2 °F 29.6 °F 34.0 °F 82% 29.76 in 10.0 mi WNW 19.6 mph 25.3 mph N/A   Overcast
4:55 PM 39.4 °F 30.1 °F 33.6 °F 80% 29.76 in 10.0 mi WNW 18.4 mph 25.3 mph N/A   Overcast
5:35 PM 39.6 °F 30.3 °F 33.4 °F 79% 29.77 in 10.0 mi WNW 18.4 mph 26.5 mph N/A   Overcast
5:55 PM 39.7 °F 31.2 °F 33.3 °F 78% 29.78 in 7.0 mi WNW 16.1 mph 19.6 mph N/A   Overcast
6:15 PM 39.6 °F 31.0 °F 33.1 °F 78% 29.78 in 10.0 mi WNW 16.1 mph 24.2 mph N/A   Overcast
6:35 PM 39.4 °F 31.1 °F 32.7 °F 77% 29.79 in 10.0 mi WNW 15.0 mph 23.0 mph N/A   Overcast
7:15 PM 38.8 °F 30.4 °F 32.4 °F 78% 29.80 in 10.0 mi WNW 15.0 mph 20.7 mph N/A   Overcast
7:35 PM 39.2 °F 31.2 °F 32.2 °F 76% 29.80 in 10.0 mi WNW 13.8 mph - N/A   Overcast
7:55 PM 39.2 °F 32.0 °F 32.0 °F 75% 29.80 in 10.0 mi WNW 11.5 mph 17.3 mph N/A   Overcast
8:15 PM 39.0 °F 31.4 °F 32.0 °F 76% 29.81 in 10.0 mi WNW 12.7 mph - N/A   Overcast
8:35 PM 39.0 °F 31.8 °F 32.0 °F 76% 29.81 in 10.0 mi WNW 11.5 mph 17.3 mph N/A   Overcast
8:55 PM 38.8 °F 31.6 °F 32.0 °F 76% 29.81 in 10.0 mi WNW 11.5 mph - N/A   Overcast
9:15 PM 38.7 °F 30.9 °F 32.0 °F 77% 29.82 in 10.0 mi WNW 12.7 mph 17.3 mph N/A   Overcast
9:35 PM 38.8 °F 32.1 °F 32.0 °F 76% 29.82 in 10.0 mi WNW 10.4 mph - N/A   Overcast
9:55 PM 39.2 °F 33.0 °F 32.0 °F 75% 29.82 in 10.0 mi WNW 9.2 mph 16.1 mph N/A   Overcast
10:15 PM 39.2 °F 32.5 °F 32.0 °F 75% 29.82 in 7.0 mi WNW 10.4 mph - N/A   Overcast
10:35 PM 39.0 °F 32.8 °F 32.2 °F 76% 29.81 in 10.0 mi WNW 9.2 mph - N/A   Overcast
10:55 PM 38.8 °F 32.6 °F 32.7 °F 79% 29.82 in 10.0 mi West 9.2 mph - N/A   Overcast
11:15 PM 38.7 °F 32.4 °F 32.7 °F 79% 29.81 in 7.0 mi West 9.2 mph - N/A   Overcast
11:35 PM 39.2 °F 32.5 °F 32.4 °F 76% 29.81 in 10.0 mi West 10.4 mph - N/A   Overcast
11:55 PM 39.2 °F 32.5 °F 32.2 °F 76% 29.81 in 10.0 mi West 10.4 mph - N/A   Overcast